createdAt,value
2022-11-17T00:00:31.461Z,11.30
2022-11-17T00:02:58.939Z,11.10
2022-11-17T00:05:26.510Z,11.75
2022-11-17T00:07:54.145Z,11.77
2022-11-17T00:10:21.607Z,11.40
2022-11-17T00:13:07.601Z,14.10
2022-11-17T00:15:35.186Z,14.05
2022-11-17T00:18:21.391Z,13.43
2022-11-17T00:21:07.107Z,13.43
2022-11-17T00:23:50.733Z,11.95
2022-11-17T00:26:21.322Z,10.93
2022-11-17T00:28:56.057Z,12.65
2022-11-17T00:31:43.955Z,10.63
2022-11-17T00:34:15.767Z,7.70
2022-11-17T00:36:54.162Z,8.97
2022-11-17T00:39:23.032Z,10.13
2022-11-17T00:41:50.943Z,8.93
2022-11-17T00:44:18.724Z,7.53
2022-11-17T00:46:46.192Z,8.50
2022-11-17T00:49:14.835Z,8.63
2022-11-17T00:51:42.836Z,9.50
2022-11-17T00:54:13.085Z,7.50
2022-11-17T00:56:40.883Z,8.60
2022-11-17T00:59:08.525Z,8.60
2022-11-17T01:01:37.036Z,7.80
2022-11-17T01:04:05.090Z,6.82
2022-11-17T01:06:39.265Z,9.00
2022-11-17T01:09:21.914Z,6.95
2022-11-17T01:11:51.490Z,12.00
2022-11-17T01:14:21.966Z,9.43
2022-11-17T01:16:49.908Z,12.82
2022-11-17T01:19:18.795Z,7.43
2022-11-17T01:21:47.337Z,7.25
2022-11-17T01:24:16.642Z,9.88
2022-11-17T01:26:45.587Z,9.45
2022-11-17T01:29:17.388Z,9.13
2022-11-17T01:31:49.845Z,9.40
2022-11-17T01:34:17.369Z,8.15
2022-11-17T01:37:03.646Z,7.93
2022-11-17T01:39:32.183Z,9.10
2022-11-17T01:42:05.026Z,7.57
2022-11-17T01:44:50.499Z,7.10
2022-11-17T01:47:26.411Z,7.55
2022-11-17T01:50:34.653Z,7.80
2022-11-17T01:53:07.609Z,7.68
2022-11-17T01:55:43.887Z,11.25
2022-11-17T01:58:15.797Z,9.80
2022-11-17T02:00:43.346Z,8.25
2022-11-17T02:03:10.935Z,7.15
2022-11-17T02:05:56.680Z,9.75
2022-11-17T02:08:28.321Z,8.55
2022-11-17T02:10:56.526Z,10.70
2022-11-17T02:13:24.873Z,9.20
2022-11-17T02:15:52.328Z,8.57
2022-11-17T02:18:20.295Z,8.95
2022-11-17T02:21:05.758Z,8.98
2022-11-17T02:24:10.548Z,10.60
2022-11-17T02:26:49.993Z,7.05
2022-11-17T02:29:23.342Z,14.13
2022-11-17T02:31:58.447Z,11.20
2022-11-17T02:34:38.558Z,10.18
2022-11-17T02:37:34.072Z,9.88
2022-11-17T02:40:10.678Z,9.60
2022-11-17T02:43:04.007Z,9.07
2022-11-17T02:45:39.564Z,8.38
2022-11-17T02:48:14.871Z,8.32
2022-11-17T02:50:46.395Z,7.70
2022-11-17T02:53:14.538Z,7.70
2022-11-17T02:55:48.242Z,8.35
2022-11-17T02:58:15.707Z,9.27
2022-11-17T03:01:02.600Z,10.00
2022-11-17T03:03:47.471Z,9.48
2022-11-17T03:06:36.276Z,9.30
2022-11-17T03:09:15.467Z,7.80
2022-11-17T03:11:50.612Z,7.85
2022-11-17T03:14:21.192Z,8.85
2022-11-17T03:17:13.205Z,7.75
2022-11-17T03:19:56.007Z,11.45
2022-11-17T03:22:26.924Z,8.57
2022-11-17T03:24:58.798Z,8.60
2022-11-17T03:27:31.016Z,8.18
2022-11-17T03:30:02.449Z,8.40
2022-11-17T03:32:36.622Z,10.82
2022-11-17T03:35:17.363Z,8.32
2022-11-17T03:37:51.831Z,8.77
2022-11-17T03:40:26.057Z,7.80
2022-11-17T03:42:57.669Z,8.20
2022-11-17T03:45:29.398Z,10.23
2022-11-17T03:48:24.485Z,8.77
2022-11-17T03:51:13.011Z,6.70
2022-11-17T03:53:41.903Z,9.48
2022-11-17T03:56:28.067Z,9.70
2022-11-17T03:59:03.125Z,8.40
2022-11-17T04:01:33.383Z,8.82
2022-11-17T04:04:01.511Z,8.10
2022-11-17T04:06:29.051Z,8.40
2022-11-17T04:08:56.692Z,7.97
2022-11-17T04:11:42.599Z,7.57
2022-11-17T04:14:28.572Z,8.73
2022-11-17T04:16:56.030Z,10.15
2022-11-17T04:19:23.498Z,11.52
2022-11-17T04:21:50.991Z,9.40
2022-11-17T04:24:18.766Z,6.18
2022-11-17T04:27:04.808Z,8.93
2022-11-17T04:29:34.300Z,9.32
2022-11-17T04:32:01.973Z,7.50
2022-11-17T04:34:29.550Z,10.18
2022-11-17T04:36:57.165Z,9.60
2022-11-17T04:39:24.602Z,9.40
2022-11-17T04:41:54.770Z,7.57
2022-11-17T04:44:24.552Z,8.68
2022-11-17T04:46:52.704Z,7.70
2022-11-17T04:49:21.853Z,7.65
2022-11-17T04:51:50.185Z,11.27
2022-11-17T04:54:20.303Z,9.68
2022-11-17T04:56:50.887Z,8.27
2022-11-17T04:59:19.918Z,9.02
2022-11-17T05:01:47.778Z,7.65
2022-11-17T05:04:40.446Z,8.35
2022-11-17T05:07:09.297Z,9.23
2022-11-17T05:09:37.277Z,8.45
2022-11-17T05:12:23.344Z,8.75
2022-11-17T05:14:50.908Z,10.80
2022-11-17T05:17:18.876Z,8.25
2022-11-17T05:19:48.177Z,8.43
2022-11-17T05:22:43.240Z,8.63
2022-11-17T05:25:11.090Z,9.70
2022-11-17T05:27:38.814Z,7.95
2022-11-17T05:30:08.697Z,7.53
2022-11-17T05:32:36.338Z,7.75
2022-11-17T05:35:03.935Z,6.83
2022-11-17T05:37:31.409Z,6.30
2022-11-17T05:39:58.842Z,6.88
2022-11-17T05:42:26.336Z,5.90
2022-11-17T05:44:53.847Z,8.18
2022-11-17T05:47:21.294Z,5.55
2022-11-17T05:49:48.763Z,6.40
2022-11-17T05:52:16.234Z,5.47
2022-11-17T05:54:43.734Z,6.75
2022-11-17T05:57:16.592Z,5.57
2022-11-17T05:59:52.195Z,8.68
2022-11-17T06:02:38.813Z,9.07
2022-11-17T06:05:06.881Z,5.33
2022-11-17T06:07:37.028Z,7.97
2022-11-17T06:10:05.179Z,5.53
2022-11-17T06:12:32.725Z,5.03
2022-11-17T06:15:00.245Z,7.53
2022-11-17T06:17:41.310Z,6.63
2022-11-17T06:20:15.525Z,7.77
2022-11-17T06:22:48.166Z,5.00
2022-11-17T06:25:17.627Z,4.82
2022-11-17T06:27:46.601Z,7.45
2022-11-17T06:30:14.220Z,7.50
2022-11-17T06:32:44.173Z,6.45
2022-11-17T06:35:14.614Z,7.23
2022-11-17T06:37:42.306Z,6.18
2022-11-17T06:40:11.907Z,6.07
2022-11-17T06:42:58.786Z,6.13
2022-11-17T06:45:26.419Z,9.52
2022-11-17T06:47:54.541Z,6.63
2022-11-17T06:50:22.262Z,6.72
2022-11-17T06:52:49.692Z,6.70
2022-11-17T06:55:17.368Z,7.47
2022-11-17T06:57:48.924Z,9.75
2022-11-17T07:00:20.037Z,5.80
2022-11-17T07:02:47.520Z,6.28
2022-11-17T07:05:15.159Z,5.45
2022-11-17T07:07:42.663Z,7.03
2022-11-17T07:10:10.424Z,5.35
2022-11-17T07:12:38.054Z,5.32
2022-11-17T07:15:06.006Z,5.38
2022-11-17T07:17:33.805Z,6.65
2022-11-17T07:20:01.254Z,7.25
2022-11-17T07:22:30.322Z,7.78
2022-11-17T07:24:57.846Z,5.57
2022-11-17T07:27:25.435Z,6.17
2022-11-17T07:29:52.909Z,6.90
2022-11-17T07:32:20.410Z,5.27
2022-11-17T07:34:47.892Z,6.68
2022-11-17T07:37:15.525Z,6.85
2022-11-17T07:39:43.240Z,8.50
2022-11-17T07:42:10.871Z,6.23
2022-11-17T07:44:38.472Z,7.53
2022-11-17T07:47:05.940Z,6.10
2022-11-17T07:49:33.510Z,5.20
2022-11-17T07:52:01.505Z,6.20
2022-11-17T07:54:29.057Z,6.35
2022-11-17T07:56:56.583Z,4.70
2022-11-17T07:59:24.067Z,6.67
2022-11-17T08:01:51.612Z,4.97
2022-11-17T08:04:19.690Z,6.03
2022-11-17T08:06:47.188Z,6.40
2022-11-17T08:09:16.102Z,8.00
2022-11-17T08:11:44.334Z,7.63
2022-11-17T08:14:11.955Z,5.20
2022-11-17T08:16:39.377Z,9.15
2022-11-17T08:19:06.953Z,6.13
2022-11-17T08:21:37.388Z,7.22
2022-11-17T08:24:05.267Z,5.93
2022-11-17T08:26:32.837Z,5.63
2022-11-17T08:29:02.060Z,5.07
2022-11-17T08:31:29.554Z,5.20
2022-11-17T08:33:57.043Z,4.93
2022-11-17T08:36:24.881Z,6.00
2022-11-17T08:38:52.394Z,6.07
2022-11-17T08:41:20.100Z,6.13
2022-11-17T08:43:47.647Z,7.20
2022-11-17T08:46:15.111Z,6.30
2022-11-17T08:48:42.810Z,7.07
2022-11-17T08:51:12.229Z,6.43
2022-11-17T08:53:40.052Z,5.93
2022-11-17T08:56:09.120Z,8.05
2022-11-17T08:58:43.929Z,5.82
2022-11-17T09:01:13.007Z,5.72
2022-11-17T09:03:44.428Z,5.28
2022-11-17T09:06:13.051Z,6.10
2022-11-17T09:08:47.828Z,5.68
2022-11-17T09:11:16.920Z,6.22
2022-11-17T09:13:45.992Z,6.37
2022-11-17T09:16:14.281Z,5.60
2022-11-17T09:18:42.101Z,5.63
2022-11-17T09:21:15.798Z,5.67
2022-11-17T09:23:43.704Z,6.15
2022-11-17T09:26:13.966Z,8.82
2022-11-17T09:28:42.379Z,5.82
2022-11-17T09:31:12.672Z,6.13
2022-11-17T09:33:40.580Z,6.63
2022-11-17T09:36:08.481Z,6.20
2022-11-17T09:38:40.079Z,9.13
2022-11-17T09:41:16.953Z,7.17
2022-11-17T09:44:33.597Z,6.00
2022-11-17T09:47:33.388Z,8.23
2022-11-17T09:50:24.126Z,7.72
2022-11-17T09:52:54.376Z,6.30
2022-11-17T09:55:38.792Z,5.87
2022-11-17T09:58:06.824Z,5.43
2022-11-17T10:00:36.908Z,8.33
2022-11-17T10:03:15.690Z,7.10
2022-11-17T10:05:43.858Z,6.83
2022-11-17T10:08:16.867Z,5.90
2022-11-17T10:10:49.955Z,7.63
2022-11-17T10:13:23.936Z,6.10
2022-11-17T10:15:57.855Z,6.07
2022-11-17T10:18:26.079Z,7.07
2022-11-17T10:20:53.555Z,7.60
2022-11-17T10:23:22.410Z,6.27
2022-11-17T10:25:57.773Z,5.93
2022-11-17T10:28:31.211Z,7.13
2022-11-17T10:31:02.022Z,6.55
2022-11-17T10:33:47.933Z,7.30
2022-11-17T10:36:33.093Z,6.30
2022-11-17T10:39:42.195Z,7.27
2022-11-17T10:42:28.054Z,5.60
2022-11-17T10:44:59.769Z,6.20
2022-11-17T10:47:39.321Z,8.03
2022-11-17T10:50:16.256Z,5.53
2022-11-17T10:52:43.867Z,6.13
2022-11-17T10:55:29.198Z,5.88
2022-11-17T10:58:19.389Z,5.80
2022-11-17T11:00:54.506Z,5.82
2022-11-17T11:03:25.603Z,5.15
2022-11-17T11:06:23.030Z,5.50
2022-11-17T11:08:50.644Z,6.77
2022-11-17T11:11:24.341Z,5.50
2022-11-17T11:13:59.150Z,5.83
2022-11-17T11:16:29.269Z,6.30
2022-11-17T11:18:58.083Z,5.65
2022-11-17T11:21:47.993Z,5.90
2022-11-17T11:24:30.164Z,6.23
2022-11-17T11:27:06.702Z,5.78
2022-11-17T11:29:45.468Z,8.07
2022-11-17T11:32:29.831Z,5.88
2022-11-17T11:35:17.011Z,6.97
2022-11-17T11:37:58.565Z,5.97
2022-11-17T11:40:53.994Z,7.57
2022-11-17T11:43:37.690Z,6.72
2022-11-17T11:46:31.266Z,6.80
2022-11-17T11:49:14.225Z,5.50
2022-11-17T11:54:14.586Z,7.38
2022-11-17T11:56:48.193Z,7.47
2022-11-17T11:59:17.878Z,6.40
2022-11-17T12:02:11.940Z,6.70
2022-11-17T12:05:24.384Z,7.53
2022-11-17T12:08:04.663Z,6.88
2022-11-17T12:10:43.938Z,6.85
2022-11-17T12:13:18.699Z,6.32
2022-11-17T12:15:46.410Z,6.70
2022-11-17T12:18:16.822Z,6.00
2022-11-17T12:20:53.064Z,6.63
2022-11-17T12:23:54.807Z,6.05
2022-11-17T12:26:25.771Z,5.10
2022-11-17T12:29:21.507Z,6.30
2022-11-17T12:31:53.028Z,6.50
2022-11-17T12:34:25.278Z,5.95
2022-11-17T12:37:14.998Z,6.78
2022-11-17T12:39:54.854Z,6.05
2022-11-17T12:42:22.381Z,6.25
2022-11-17T12:45:05.813Z,6.13
2022-11-17T12:47:38.996Z,7.25
2022-11-17T12:50:21.400Z,6.75
2022-11-17T12:53:14.661Z,5.63
2022-11-17T12:55:50.969Z,5.90
2022-11-17T12:58:33.669Z,5.80
2022-11-17T13:01:19.911Z,5.55
2022-11-17T13:04:01.149Z,5.60
2022-11-17T13:06:36.834Z,5.85
2022-11-17T13:09:12.484Z,5.95
2022-11-17T13:11:39.948Z,5.80
2022-11-17T13:14:16.411Z,8.40
2022-11-17T13:16:50.509Z,5.70
2022-11-17T13:19:30.081Z,5.63
2022-11-17T13:22:06.589Z,8.32
2022-11-17T13:24:38.860Z,7.45
2022-11-17T13:27:17.092Z,6.80
2022-11-17T13:29:44.583Z,5.45
2022-11-17T13:32:14.901Z,5.97
2022-11-17T13:34:56.928Z,5.68
2022-11-17T13:37:27.662Z,5.30
2022-11-17T13:40:23.242Z,6.47
2022-11-17T13:42:50.950Z,5.78
2022-11-17T13:45:18.617Z,5.88
2022-11-17T13:47:48.610Z,5.72
2022-11-17T13:50:27.967Z,6.05
2022-11-17T13:52:59.544Z,6.03
2022-11-17T13:55:28.568Z,5.90
2022-11-17T13:58:02.761Z,5.70
2022-11-17T14:00:31.808Z,5.88
2022-11-17T14:03:27.746Z,5.72
2022-11-17T14:05:57.258Z,5.75
2022-11-17T14:08:29.602Z,5.35
2022-11-17T14:11:12.281Z,5.35
2022-11-17T14:13:42.826Z,5.30
2022-11-17T14:16:22.968Z,5.25
2022-11-17T14:18:59.301Z,5.57
2022-11-17T14:21:27.513Z,5.50
2022-11-17T14:24:07.068Z,5.60
2022-11-17T14:26:34.705Z,6.18
2022-11-17T14:29:05.226Z,5.50
2022-11-17T14:31:33.500Z,5.47
2022-11-17T14:34:02.872Z,5.28
2022-11-17T14:36:32.560Z,5.75
2022-11-17T14:39:03.245Z,5.18
2022-11-17T14:41:30.857Z,5.38
2022-11-17T14:43:58.369Z,5.20
2022-11-17T14:46:27.371Z,5.90
2022-11-17T14:48:56.081Z,5.25
2022-11-17T14:51:23.977Z,5.53
2022-11-17T14:53:51.566Z,4.97
2022-11-17T14:56:21.336Z,4.75
2022-11-17T14:58:54.321Z,4.95
2022-11-17T15:01:25.631Z,4.85
2022-11-17T15:03:53.812Z,4.80
2022-11-17T15:07:55.719Z,4.65
2022-11-17T15:10:23.262Z,4.80
2022-11-17T15:12:50.843Z,5.30
2022-11-17T15:15:18.566Z,5.25
2022-11-17T15:17:46.079Z,4.80
2022-11-17T15:20:13.879Z,5.53
2022-11-17T15:22:41.351Z,5.13
2022-11-17T15:25:09.493Z,5.53
2022-11-17T15:27:36.984Z,5.30
2022-11-17T15:30:05.063Z,6.03
2022-11-17T15:32:32.597Z,5.63
2022-11-17T15:35:00.120Z,5.20
2022-11-17T15:37:27.659Z,5.60
2022-11-17T15:39:55.197Z,5.45
2022-11-17T15:42:22.764Z,5.20
2022-11-17T15:44:50.308Z,4.50
2022-11-17T15:47:18.005Z,4.47
2022-11-17T15:49:46.983Z,4.63
2022-11-17T15:52:14.468Z,4.60
2022-11-17T15:54:41.980Z,4.50
2022-11-17T15:57:09.470Z,4.45
2022-11-17T15:59:36.998Z,5.28
2022-11-17T16:02:24.672Z,5.00
2022-11-17T16:04:52.317Z,4.35
2022-11-17T16:07:19.919Z,4.78
2022-11-17T16:09:49.260Z,4.45
2022-11-17T16:12:18.239Z,4.35
2022-11-17T16:14:45.936Z,4.50
2022-11-17T16:17:13.405Z,5.05
2022-11-17T16:19:41.038Z,4.90
2022-11-17T16:22:08.623Z,4.43
2022-11-17T16:24:36.202Z,4.95
2022-11-17T16:27:04.813Z,5.30
2022-11-17T16:29:32.291Z,5.22
2022-11-17T16:31:59.764Z,5.10
2022-11-17T16:34:27.387Z,5.22
2022-11-17T16:36:54.831Z,4.90
2022-11-17T16:39:22.482Z,5.38
2022-11-17T16:41:51.551Z,5.30
2022-11-17T16:44:20.589Z,5.68
2022-11-17T16:46:49.997Z,5.43
2022-11-17T16:49:19.502Z,5.85
2022-11-17T16:51:49.301Z,5.95
2022-11-17T16:54:18.176Z,5.78
2022-11-17T16:56:46.126Z,6.68
2022-11-17T16:59:14.247Z,5.97
2022-11-17T17:01:42.136Z,6.35
2022-11-17T17:04:12.482Z,6.15
2022-11-17T17:06:41.690Z,7.05
2022-11-17T17:09:11.281Z,6.88
2022-11-17T17:11:39.020Z,6.20
2022-11-17T17:14:08.511Z,4.53
2022-11-17T17:16:37.647Z,4.82
2022-11-17T17:19:06.975Z,4.15
2022-11-17T17:21:35.825Z,4.43
2022-11-17T17:24:05.320Z,4.30
2022-11-17T17:26:34.341Z,5.00
2022-11-17T17:29:03.568Z,5.28
2022-11-17T17:31:33.869Z,5.68
2022-11-17T17:34:01.574Z,5.63
2022-11-17T17:36:30.049Z,4.50
2022-11-17T17:39:00.684Z,5.30
2022-11-17T17:41:31.091Z,5.20
2022-11-17T17:44:01.705Z,4.97
2022-11-17T17:46:31.127Z,5.70
2022-11-17T17:48:59.309Z,5.55
2022-11-17T17:51:31.356Z,5.72
2022-11-17T17:54:02.196Z,5.03
2022-11-17T17:56:30.943Z,7.63
2022-11-17T17:58:59.124Z,5.80
2022-11-17T18:01:33.353Z,4.70
2022-11-17T18:04:05.134Z,5.55
2022-11-17T18:06:38.627Z,6.80
2022-11-17T18:09:07.877Z,5.60
2022-11-17T18:11:35.988Z,4.90
2022-11-17T18:14:04.829Z,5.57
2022-11-17T18:16:33.889Z,5.93
2022-11-17T18:19:04.316Z,5.38
2022-11-17T18:21:32.535Z,5.30
2022-11-17T18:24:02.145Z,6.43
2022-11-17T18:26:32.654Z,5.43
2022-11-17T18:29:06.658Z,6.47
2022-11-17T18:31:36.073Z,5.05
2022-11-17T18:34:13.215Z,5.38
2022-11-17T18:36:42.392Z,5.07
2022-11-17T18:39:10.047Z,5.60
2022-11-17T18:41:38.010Z,5.22
2022-11-17T18:44:06.011Z,5.10
2022-11-17T18:46:34.179Z,5.35
2022-11-17T18:49:02.287Z,5.40
2022-11-17T18:51:32.148Z,5.65
2022-11-17T18:54:01.557Z,5.57
2022-11-17T18:56:32.681Z,6.13
2022-11-17T18:59:00.377Z,6.13
2022-11-17T19:01:31.909Z,5.85
2022-11-17T19:04:03.301Z,5.85
2022-11-17T19:06:31.525Z,5.57
2022-11-17T19:09:00.053Z,5.80
2022-11-17T19:11:31.112Z,5.97
2022-11-17T19:14:02.444Z,5.80
2022-11-17T19:16:32.018Z,6.25
2022-11-17T19:18:59.978Z,5.88
2022-11-17T19:21:34.074Z,8.50
2022-11-17T19:24:04.960Z,5.80
2022-11-17T19:26:34.555Z,6.43
2022-11-17T19:29:14.254Z,5.80
2022-11-17T19:31:43.573Z,6.57
2022-11-17T19:34:11.631Z,7.10
2022-11-17T19:36:39.155Z,6.50
2022-11-17T19:39:06.968Z,6.70
2022-11-17T19:41:36.680Z,6.50
2022-11-17T19:44:06.430Z,6.97
2022-11-17T19:46:34.210Z,6.82
2022-11-17T19:49:04.058Z,7.22
2022-11-17T19:51:33.781Z,6.47
2022-11-17T19:54:03.390Z,7.15
2022-11-17T19:56:31.178Z,7.57
2022-11-17T19:58:58.916Z,8.13
2022-11-17T20:01:30.618Z,6.82
2022-11-17T20:04:00.542Z,8.60
2022-11-17T20:06:32.219Z,8.55
2022-11-17T20:08:59.855Z,6.93
2022-11-17T20:11:28.756Z,7.82
2022-11-17T20:13:56.779Z,6.75
2022-11-17T20:16:26.911Z,9.52
2022-11-17T20:18:56.782Z,7.88
2022-11-17T20:21:26.091Z,9.32
2022-11-17T20:23:54.859Z,8.00
2022-11-17T20:26:30.443Z,8.52
2022-11-17T20:28:58.816Z,8.27
2022-11-17T20:31:29.539Z,8.02
2022-11-17T20:33:58.577Z,9.38
2022-11-17T20:36:26.571Z,7.80
2022-11-17T20:38:57.082Z,9.35
2022-11-17T20:41:25.244Z,8.25
2022-11-17T20:43:54.957Z,7.53
2022-11-17T20:46:23.630Z,8.70
2022-11-17T20:48:51.428Z,9.68
2022-11-17T20:51:24.119Z,7.47
2022-11-17T20:56:19.593Z,7.47
2022-11-17T20:58:47.346Z,7.75
2022-11-17T21:01:21.489Z,7.07
2022-11-17T21:03:49.531Z,8.90
2022-11-17T21:06:17.412Z,8.00
2022-11-17T21:08:46.220Z,7.63
2022-11-17T21:11:34.943Z,9.65
2022-11-17T21:14:03.283Z,7.10
2022-11-17T21:16:30.843Z,6.88
2022-11-17T21:18:58.791Z,7.70
2022-11-17T21:21:26.363Z,6.88
2022-11-17T21:23:54.668Z,6.63
2022-11-17T21:26:25.728Z,7.45
2022-11-17T21:28:53.379Z,7.72
2022-11-17T21:31:26.317Z,6.75
2022-11-17T21:34:01.288Z,8.73
2022-11-17T21:36:30.653Z,7.20
2022-11-17T21:38:58.301Z,7.70
2022-11-17T21:41:27.965Z,7.38
2022-11-17T21:43:58.743Z,8.45
2022-11-17T21:46:28.640Z,7.45
2022-11-17T21:48:58.159Z,8.00
2022-11-17T21:51:33.635Z,8.90
2022-11-17T21:54:03.618Z,8.13
2022-11-17T21:56:32.271Z,8.82
2022-11-17T21:59:01.742Z,9.82
2022-11-17T22:01:30.458Z,9.27
2022-11-17T22:03:58.167Z,8.80
2022-11-17T22:06:26.777Z,8.13
2022-11-17T22:08:55.892Z,11.68
2022-11-17T22:11:38.585Z,9.75
2022-11-17T22:14:12.349Z,8.48
2022-11-17T22:16:53.815Z,8.68
2022-11-17T22:19:23.303Z,9.65
2022-11-17T22:21:53.084Z,8.07
2022-11-17T22:24:21.494Z,10.18
2022-11-17T22:26:49.100Z,8.55
2022-11-17T22:29:19.334Z,8.05
2022-11-17T22:31:48.850Z,9.05
2022-11-17T22:34:17.537Z,7.25
2022-11-17T22:36:45.399Z,10.23
2022-11-17T22:39:12.942Z,8.95
2022-11-17T22:41:40.919Z,9.80
2022-11-17T22:44:12.117Z,8.75
2022-11-17T22:46:40.902Z,9.77
2022-11-17T22:49:09.940Z,9.80
2022-11-17T22:51:55.817Z,8.75
2022-11-17T22:54:23.430Z,9.82
2022-11-17T22:56:51.172Z,9.30
2022-11-17T22:59:18.854Z,8.98
2022-11-17T23:01:46.531Z,8.70
2022-11-17T23:04:15.191Z,9.52
2022-11-17T23:06:43.207Z,8.20
2022-11-17T23:09:11.408Z,9.18
2022-11-17T23:11:39.361Z,9.25
2022-11-17T23:14:09.410Z,9.65
2022-11-17T23:16:37.851Z,10.20
2022-11-17T23:19:05.928Z,9.55
2022-11-17T23:21:33.611Z,9.52
2022-11-17T23:24:01.261Z,10.93
2022-11-17T23:26:28.863Z,8.85
2022-11-17T23:28:56.433Z,9.27
2022-11-17T23:31:23.822Z,9.38
2022-11-17T23:33:51.441Z,9.57
2022-11-17T23:36:21.260Z,9.98
2022-11-17T23:38:50.222Z,8.93
2022-11-17T23:41:19.962Z,9.10
2022-11-17T23:43:51.109Z,11.10
2022-11-17T23:46:21.077Z,10.18
2022-11-17T23:48:48.812Z,7.72
2022-11-17T23:51:21.517Z,9.38
2022-11-17T23:56:19.236Z,7.90
2022-11-17T23:58:46.817Z,8.32
